Time;durP1;ratioP1;P1;durP2;ratioP2;P2;SDS_P1;SDS_P2;PMS_P1;PMS_P2;Temp;Humidity;BMP_temperature;BMP_pressure;BME280_temperature;BME280_humidity;BME280_pressure;Samples;Min_cycle;Max_cycle;Signal;HPM_P1;HPM_P2
2023/01/27 00:00:22;;;;;;;;;;;5.60;99.90;;;;;;5091297;28;19912;-77
2023/01/27 00:02:47;;;;;;;;;;;5.50;99.90;;;;;;5091818;28;20360;-77
2023/01/27 00:05:14;;;;;;;;;;;5.50;99.90;;;;;;5092004;28;19908;-77
2023/01/27 00:07:44;;;;;;;;;;;5.50;99.90;;;;;;5091548;28;19956;-78
2023/01/27 00:10:11;;;;;;;;;;;5.50;99.90;;;;;;5090473;28;19936;-78
2023/01/27 00:15:21;;;;;;;;;;;5.40;99.90;;;;;;5091646;28;19914;-78
2023/01/27 00:17:47;;;;;;;;;;;5.30;99.90;;;;;;5092488;28;20323;-78
2023/01/27 00:20:12;;;;;;;;;;;5.30;99.90;;;;;;5092482;28;19937;-79
2023/01/27 00:25:22;;;;;;;;;;;5.30;99.90;;;;;;5092278;28;20332;-78
2023/01/27 00:27:47;;;;;;;;;;;5.20;99.90;;;;;;5092545;28;19963;-78
2023/01/27 00:30:13;;;;;;;;;;;5.10;99.90;;;;;;5092410;28;20294;-78
2023/01/27 00:35:24;;;;;;;;;;;5.10;99.90;;;;;;5091886;28;19915;-80
2023/01/27 00:37:49;;;;;;;;;;;5.00;99.90;;;;;;5092980;28;20007;-79
2023/01/27 00:40:15;;;;;;;;;;;4.90;99.90;;;;;;5092456;28;19977;-79
2023/01/27 00:42:41;;;;;;;;;;;4.90;99.90;;;;;;5092244;28;19918;-79
2023/01/27 00:47:51;;;;;;;;;;;4.80;99.90;;;;;;5092337;28;19919;-78
2023/01/27 00:50:17;;;;;;;;;;;4.80;99.90;;;;;;5092635;28;19923;-78
2023/01/27 00:52:43;;;;;;;;;;;4.70;99.90;;;;;;5092351;28;19912;-77
2023/01/27 00:55:14;;;;;;;;;;;4.70;99.90;;;;;;5093258;28;19915;-77
2023/01/27 00:57:40;;;;;;;;;;;4.70;99.90;;;;;;5092771;28;19904;-78
2023/01/27 01:00:08;;;;;;;;;;;4.60;99.90;;;;;;5092878;28;20213;-77
2023/01/27 01:02:34;;;;;;;;;;;4.60;99.90;;;;;;5091702;28;19948;-78
2023/01/27 01:04:59;;;;;;;;;;;4.60;99.90;;;;;;5092623;28;19908;-78
2023/01/27 01:07:25;;;;;;;;;;;4.50;99.90;;;;;;5091559;28;19920;-79
2023/01/27 01:09:50;;;;;;;;;;;4.50;99.90;;;;;;5092687;28;19935;-77
2023/01/27 01:12:16;;;;;;;;;;;4.50;99.90;;;;;;5090736;28;19908;-78
2023/01/27 01:14:42;;;;;;;;;;;4.40;99.90;;;;;;5091587;28;19904;-78
2023/01/27 01:17:07;;;;;;;;;;;4.40;99.90;;;;;;5092035;28;20284;-78
2023/01/27 01:19:33;;;;;;;;;;;4.40;99.90;;;;;;5091021;28;19908;-77
2023/01/27 01:21:58;;;;;;;;;;;4.30;99.90;;;;;;5124574;27;20008;-77
2023/01/27 01:24:24;;;;;;;;;;;4.30;99.90;;;;;;5091093;28;19912;-80
2023/01/27 01:26:50;;;;;;;;;;;4.20;99.90;;;;;;5091806;28;19962;-77
2023/01/27 01:29:15;;;;;;;;;;;4.20;99.90;;;;;;5091688;28;19914;-78
2023/01/27 01:31:41;;;;;;;;;;;4.20;99.90;;;;;;5089496;28;19920;-78
2023/01/27 01:34:07;;;;;;;;;;;4.20;99.90;;;;;;5091642;28;19909;-78
2023/01/27 01:36:33;;;;;;;;;;;4.20;99.90;;;;;;5089479;28;20053;-78
2023/01/27 01:38:58;;;;;;;;;;;4.20;99.90;;;;;;5091705;28;19969;-77
2023/01/27 01:41:24;;;;;;;;;;;4.10;99.90;;;;;;5090001;28;19923;-87
2023/01/27 01:43:50;;;;;;;;;;;4.00;99.90;;;;;;5091101;28;20323;-77
2023/01/27 01:46:16;;;;;;;;;;;4.00;99.90;;;;;;5091471;28;19908;-78
2023/01/27 01:48:46;;;;;;;;;;;4.10;99.90;;;;;;5090757;28;19908;-76
2023/01/27 01:51:17;;;;;;;;;;;4.00;99.90;;;;;;5091232;28;20006;-78
2023/01/27 01:53:47;;;;;;;;;;;4.00;99.90;;;;;;5090487;28;20049;-78
2023/01/27 01:56:14;;;;;;;;;;;4.00;99.90;;;;;;5091045;28;20218;-77
2023/01/27 01:58:41;;;;;;;;;;;4.10;99.90;;;;;;5090567;28;19935;-77
2023/01/27 02:01:07;;;;;;;;;;;4.20;99.90;;;;;;5091276;28;20308;-78
2023/01/27 02:03:33;;;;;;;;;;;4.20;99.90;;;;;;5090448;28;19908;-78
2023/01/27 02:05:59;;;;;;;;;;;4.20;99.90;;;;;;5090606;28;20000;-78
2023/01/27 02:08:28;;;;;;;;;;;4.20;99.90;;;;;;5090405;28;19919;-86
2023/01/27 02:10:53;;;;;;;;;;;4.20;99.90;;;;;;5090725;28;19923;-77
2023/01/27 02:13:20;;;;;;;;;;;4.20;99.90;;;;;;5090941;28;19908;-77
2023/01/27 02:15:46;;;;;;;;;;;4.30;99.90;;;;;;5090786;28;20521;-79
2023/01/27 02:18:13;;;;;;;;;;;4.20;99.90;;;;;;5090888;28;19908;-78
2023/01/27 02:20:41;;;;;;;;;;;4.20;99.90;;;;;;5090396;28;19912;-79
2023/01/27 02:23:26;;;;;;;;;;;4.10;99.90;;;;;;5090672;28;19944;-79
2023/01/27 02:25:55;;;;;;;;;;;4.10;99.90;;;;;;5090278;28;19995;-78
2023/01/27 02:28:20;;;;;;;;;;;4.10;99.90;;;;;;5090708;28;20012;-77
2023/01/27 02:30:46;;;;;;;;;;;4.10;99.90;;;;;;5090058;28;19986;-80
2023/01/27 02:33:13;;;;;;;;;;;4.00;99.90;;;;;;5090462;28;19943;-79
2023/01/27 02:35:48;;;;;;;;;;;4.00;99.90;;;;;;5088205;28;20384;-76
2023/01/27 02:38:16;;;;;;;;;;;4.00;99.90;;;;;;5089167;28;19908;-77
2023/01/27 02:40:42;;;;;;;;;;;4.00;99.90;;;;;;5089930;28;20345;-78
2023/01/27 02:43:08;;;;;;;;;;;3.90;99.90;;;;;;5090485;28;20418;-78
2023/01/27 02:45:33;;;;;;;;;;;3.90;99.90;;;;;;5089969;28;19912;-78
2023/01/27 02:47:59;;;;;;;;;;;3.90;99.90;;;;;;5090555;28;20271;-77
2023/01/27 02:50:24;;;;;;;;;;;3.90;99.90;;;;;;5090148;28;19916;-77
2023/01/27 02:52:50;;;;;;;;;;;3.90;99.90;;;;;;5092407;28;20328;-77
2023/01/27 02:55:15;;;;;;;;;;;3.90;99.90;;;;;;5094071;28;19924;-77
2023/01/27 02:57:41;;;;;;;;;;;3.80;99.90;;;;;;5093356;28;20357;-79
2023/01/27 03:00:08;;;;;;;;;;;3.80;99.90;;;;;;5093962;28;19908;-77
2023/01/27 03:02:34;;;;;;;;;;;3.80;99.90;;;;;;5093139;28;19919;-79
2023/01/27 03:04:59;;;;;;;;;;;3.80;99.90;;;;;;5093425;28;19908;-78
2023/01/27 03:07:25;;;;;;;;;;;3.80;99.90;;;;;;5094094;28;19935;-78
2023/01/27 03:09:51;;;;;;;;;;;3.80;99.90;;;;;;5093493;28;19923;-78
2023/01/27 03:12:19;;;;;;;;;;;3.80;99.90;;;;;;5093414;28;19908;-78
2023/01/27 03:20:14;;;;;;;;;;;3.70;99.90;;;;;;5093647;28;19942;-79
2023/01/27 03:22:39;;;;;;;;;;;3.60;99.90;;;;;;5093685;28;19908;-77
2023/01/27 03:25:05;;;;;;;;;;;3.50;99.90;;;;;;5093874;28;19908;-78
2023/01/27 03:27:31;;;;;;;;;;;3.50;99.90;;;;;;5093868;28;20218;-82
2023/01/27 03:29:56;;;;;;;;;;;3.50;99.90;;;;;;5093267;28;19916;-78
2023/01/27 03:32:23;;;;;;;;;;;3.40;99.90;;;;;;5093716;28;20014;-79
2023/01/27 03:34:48;;;;;;;;;;;3.40;99.90;;;;;;5093415;28;20006;-79
2023/01/27 03:48:11;;;;;;;;;;;3.20;99.90;;;;;;5093384;28;20019;-77
2023/01/27 03:50:42;;;;;;;;;;;3.20;99.90;;;;;;5092693;28;19917;-77
2023/01/27 03:53:08;;;;;;;;;;;3.20;99.90;;;;;;5091992;28;20259;-78
2023/01/27 03:55:35;;;;;;;;;;;3.20;99.90;;;;;;5092612;28;19915;-83
2023/01/27 03:58:16;;;;;;;;;;;3.20;99.90;;;;;;5093609;28;19942;-79
2023/01/27 04:00:42;;;;;;;;;;;3.20;99.90;;;;;;5092500;28;19908;-78
2023/01/27 04:08:36;;;;;;;;;;;3.20;99.90;;;;;;5092485;28;20327;-79
2023/01/27 04:13:47;;;;;;;;;;;3.20;99.90;;;;;;5092180;28;20388;-78
2023/01/27 04:16:13;;;;;;;;;;;3.20;99.90;;;;;;5092811;28;20028;-78
2023/01/27 04:18:38;;;;;;;;;;;3.20;99.90;;;;;;5092047;28;19953;-79
2023/01/27 04:21:04;;;;;;;;;;;3.30;99.90;;;;;;5092604;28;19908;-78
2023/01/27 04:23:29;;;;;;;;;;;3.30;99.90;;;;;;5092492;28;20298;-78
2023/01/27 04:25:55;;;;;;;;;;;3.20;99.90;;;;;;5092023;28;20013;-78
2023/01/27 04:28:21;;;;;;;;;;;3.20;99.90;;;;;;5090847;28;20007;-78
2023/01/27 04:30:47;;;;;;;;;;;3.20;99.90;;;;;;5091805;28;20004;-79
2023/01/27 04:33:14;;;;;;;;;;;3.20;99.90;;;;;;5092161;28;19908;-78
2023/01/27 04:35:46;;;;;;;;;;;3.30;99.90;;;;;;5091521;28;19908;-77
2023/01/27 04:38:12;;;;;;;;;;;3.30;99.90;;;;;;5091996;28;19952;-78
2023/01/27 04:40:37;;;;;;;;;;;3.40;99.90;;;;;;5091772;28;19927;-78
2023/01/27 04:43:04;;;;;;;;;;;3.40;99.90;;;;;;5090842;28;19908;-77
2023/01/27 04:45:30;;;;;;;;;;;3.50;99.90;;;;;;5091656;28;20261;-79
2023/01/27 04:47:55;;;;;;;;;;;3.60;99.90;;;;;;5091217;28;19995;-78
2023/01/27 04:50:21;;;;;;;;;;;3.60;99.90;;;;;;5091566;28;20012;-78
2023/01/27 04:52:46;;;;;;;;;;;3.70;99.90;;;;;;5089950;28;19908;-78
2023/01/27 04:55:12;;;;;;;;;;;3.70;99.90;;;;;;5091881;28;20371;-78
2023/01/27 04:57:37;;;;;;;;;;;3.80;99.90;;;;;;5091310;28;19962;-87
2023/01/27 05:00:04;;;;;;;;;;;3.90;99.90;;;;;;5092049;28;19909;-78
2023/01/27 05:02:30;;;;;;;;;;;4.00;99.90;;;;;;5091328;28;19916;-77
2023/01/27 05:04:56;;;;;;;;;;;4.00;99.90;;;;;;5090979;28;20335;-77
2023/01/27 05:07:22;;;;;;;;;;;4.00;99.90;;;;;;5091035;28;19920;-77
2023/01/27 05:09:48;;;;;;;;;;;4.00;99.90;;;;;;5090872;28;19915;-78
2023/01/27 05:12:13;;;;;;;;;;;4.00;99.90;;;;;;5091823;28;19937;-79
2023/01/27 05:14:39;;;;;;;;;;;4.00;99.90;;;;;;5090997;28;19908;-84
2023/01/27 05:17:04;;;;;;;;;;;4.00;99.90;;;;;;5091766;28;19942;-77
2023/01/27 05:19:30;;;;;;;;;;;4.00;99.90;;;;;;5091454;28;19972;-78
2023/01/27 05:21:56;;;;;;;;;;;4.10;99.90;;;;;;5091183;28;19963;-78
2023/01/27 05:24:21;;;;;;;;;;;4.10;99.90;;;;;;5091669;28;19915;-78
2023/01/27 05:26:47;;;;;;;;;;;4.10;99.90;;;;;;5090553;28;19916;-79
2023/01/27 05:29:12;;;;;;;;;;;4.10;99.90;;;;;;5089736;28;19947;-79
2023/01/27 05:31:38;;;;;;;;;;;4.10;99.90;;;;;;5091116;28;19942;-86
2023/01/27 05:34:03;;;;;;;;;;;4.20;99.90;;;;;;5090683;28;19943;-79
2023/01/27 05:36:29;;;;;;;;;;;4.20;99.90;;;;;;5091217;28;20013;-78
2023/01/27 05:38:55;;;;;;;;;;;4.20;99.90;;;;;;5090251;28;19981;-78
2023/01/27 05:41:21;;;;;;;;;;;4.30;99.90;;;;;;5091221;28;19923;-79
2023/01/27 05:43:50;;;;;;;;;;;4.30;99.90;;;;;;5090766;28;19915;-79
2023/01/27 05:46:19;;;;;;;;;;;4.40;99.90;;;;;;5090783;28;19953;-78
2023/01/27 05:48:46;;;;;;;;;;;4.30;99.90;;;;;;5090923;28;19931;-79
2023/01/27 05:51:12;;;;;;;;;;;4.40;99.90;;;;;;5091148;28;19916;-77
2023/01/27 05:53:37;;;;;;;;;;;4.40;99.90;;;;;;5091327;28;20360;-78
2023/01/27 05:56:04;;;;;;;;;;;4.40;99.90;;;;;;5090530;28;19908;-78
2023/01/27 05:58:30;;;;;;;;;;;4.30;99.90;;;;;;5091287;28;19912;-79
2023/01/27 06:00:55;;;;;;;;;;;4.30;99.90;;;;;;5090775;28;19912;-79
2023/01/27 06:03:21;;;;;;;;;;;4.30;99.90;;;;;;5091485;28;20002;-78
2023/01/27 06:05:56;;;;;;;;;;;4.30;99.90;;;;;;5089354;28;19908;-79
2023/01/27 06:08:23;;;;;;;;;;;4.40;99.90;;;;;;5091491;28;19920;-78
2023/01/27 06:10:49;;;;;;;;;;;4.40;99.90;;;;;;5090684;28;19916;-79
2023/01/27 06:13:14;;;;;;;;;;;4.50;99.90;;;;;;5091374;28;19912;-79
2023/01/27 06:15:41;;;;;;;;;;;4.50;99.90;;;;;;5090732;28;19934;-88
2023/01/27 06:18:06;;;;;;;;;;;4.50;99.90;;;;;;5090511;28;19908;-78
2023/01/27 06:20:32;;;;;;;;;;;4.40;99.90;;;;;;5090796;28;19941;-78
2023/01/27 06:22:58;;;;;;;;;;;4.40;99.90;;;;;;5090373;28;19976;-77
2023/01/27 06:25:23;;;;;;;;;;;4.40;99.90;;;;;;5090636;28;20353;-77
2023/01/27 06:27:52;;;;;;;;;;;4.40;99.90;;;;;;5092881;28;19912;-78
2023/01/27 06:30:18;;;;;;;;;;;4.40;99.90;;;;;;5094836;28;19923;-78
2023/01/27 06:32:44;;;;;;;;;;;4.40;99.90;;;;;;5094096;28;19916;-87
2023/01/27 06:35:09;;;;;;;;;;;4.40;99.90;;;;;;5094382;28;20242;-78
2023/01/27 06:37:35;;;;;;;;;;;4.40;99.90;;;;;;5094860;28;19939;-78
2023/01/27 06:40:01;;;;;;;;;;;4.40;99.90;;;;;;5093917;28;19912;-79
2023/01/27 06:42:27;;;;;;;;;;;4.40;99.90;;;;;;5094602;28;19908;-78
2023/01/27 06:44:53;;;;;;;;;;;4.40;99.90;;;;;;5095304;28;19912;-77
2023/01/27 06:47:18;;;;;;;;;;;4.40;99.90;;;;;;5092764;28;19987;-77
2023/01/27 06:49:44;;;;;;;;;;;4.40;99.90;;;;;;5094443;28;19914;-84
2023/01/27 06:52:09;;;;;;;;;;;4.40;99.90;;;;;;5094396;28;19967;-77
2023/01/27 06:54:35;;;;;;;;;;;4.40;99.90;;;;;;5093861;28;19908;-77
2023/01/27 06:57:01;;;;;;;;;;;4.40;99.90;;;;;;5093544;28;19909;-77
2023/01/27 06:59:26;;;;;;;;;;;4.40;99.90;;;;;;5094493;28;19909;-77
2023/01/27 07:01:52;;;;;;;;;;;4.40;99.90;;;;;;5094058;28;19923;-78
2023/01/27 07:04:17;;;;;;;;;;;4.40;99.90;;;;;;5092764;28;19922;-78
2023/01/27 07:06:43;;;;;;;;;;;4.40;99.90;;;;;;5094049;28;19995;-79
2023/01/27 07:09:08;;;;;;;;;;;4.40;99.90;;;;;;5093768;28;20341;-78
2023/01/27 07:11:34;;;;;;;;;;;4.40;99.90;;;;;;5093819;28;19928;-78
2023/01/27 07:14:00;;;;;;;;;;;4.40;99.90;;;;;;5093209;28;20305;-79
2023/01/27 07:16:25;;;;;;;;;;;4.40;99.90;;;;;;5093514;28;19916;-78
2023/01/27 07:18:51;;;;;;;;;;;4.40;99.90;;;;;;5093039;28;19908;-79
2023/01/27 07:21:16;;;;;;;;;;;4.50;99.90;;;;;;5093750;28;19908;-79
2023/01/27 07:23:42;;;;;;;;;;;4.50;99.90;;;;;;5092571;28;20357;-78
2023/01/27 07:26:07;;;;;;;;;;;4.50;99.90;;;;;;5092755;28;19991;-79
2023/01/27 07:28:33;;;;;;;;;;;4.50;99.90;;;;;;5093866;28;19908;-77
2023/01/27 07:30:59;;;;;;;;;;;4.50;99.90;;;;;;5092864;28;20376;-77
2023/01/27 07:33:25;;;;;;;;;;;4.50;99.90;;;;;;5093746;28;19908;-78
2023/01/27 07:35:50;;;;;;;;;;;4.50;99.90;;;;;;5092656;28;20266;-78
2023/01/27 07:38:16;;;;;;;;;;;4.50;99.90;;;;;;5091753;28;19951;-78
2023/01/27 07:40:41;;;;;;;;;;;4.50;99.90;;;;;;5093112;28;19907;-77
2023/01/27 07:43:09;;;;;;;;;;;4.60;99.90;;;;;;5092390;28;19908;-77
2023/01/27 07:45:34;;;;;;;;;;;4.50;99.90;;;;;;5093055;28;19956;-77
2023/01/27 07:48:01;;;;;;;;;;;4.60;99.90;;;;;;5092369;28;20333;-77
2023/01/27 07:50:26;;;;;;;;;;;4.60;99.90;;;;;;5092937;28;19916;-77
2023/01/27 07:52:52;;;;;;;;;;;4.60;99.90;;;;;;5092246;28;19908;-78
2023/01/27 07:55:17;;;;;;;;;;;4.60;99.90;;;;;;5092843;28;19962;-78
2023/01/27 07:57:43;;;;;;;;;;;4.60;99.90;;;;;;5093077;28;19908;-79
2023/01/27 08:00:09;;;;;;;;;;;4.60;99.90;;;;;;5092340;28;20532;-79
2023/01/27 08:02:34;;;;;;;;;;;4.60;99.90;;;;;;5091352;28;20307;-78
2023/01/27 08:05:00;;;;;;;;;;;4.60;99.90;;;;;;5092237;28;19919;-76
2023/01/27 08:07:25;;;;;;;;;;;4.60;99.90;;;;;;5092518;28;20361;-77
2023/01/27 08:09:53;;;;;;;;;;;4.60;99.90;;;;;;5091944;28;19943;-81
2023/01/27 08:12:18;;;;;;;;;;;4.70;99.90;;;;;;5092616;28;19918;-77
2023/01/27 08:14:44;;;;;;;;;;;4.70;99.90;;;;;;5092319;28;19909;-79
2023/01/27 08:17:09;;;;;;;;;;;4.70;99.90;;;;;;5092197;28;19915;-78
2023/01/27 08:19:35;;;;;;;;;;;4.70;99.90;;;;;;5092940;28;19908;-78
2023/01/27 08:22:00;;;;;;;;;;;4.70;99.90;;;;;;5092456;28;20233;-78
2023/01/27 08:24:26;;;;;;;;;;;4.80;99.90;;;;;;5093000;28;19908;-78
2023/01/27 08:26:52;;;;;;;;;;;4.80;99.90;;;;;;5091926;28;19915;-84
2023/01/27 08:29:17;;;;;;;;;;;4.80;99.90;;;;;;5092704;28;19908;-78
2023/01/27 08:31:43;;;;;;;;;;;4.80;99.90;;;;;;5092474;28;19916;-78
2023/01/27 08:34:08;;;;;;;;;;;4.80;99.90;;;;;;5091907;28;19908;-79
2023/01/27 08:36:34;;;;;;;;;;;4.80;99.90;;;;;;5092174;28;19948;-79
2023/01/27 08:38:59;;;;;;;;;;;4.80;99.90;;;;;;5091897;28;20245;-79
2023/01/27 08:41:25;;;;;;;;;;;4.80;99.90;;;;;;5092160;28;19951;-79
2023/01/27 08:43:52;;;;;;;;;;;4.80;99.90;;;;;;5091852;28;20006;-85
2023/01/27 08:46:18;;;;;;;;;;;4.90;99.90;;;;;;5092442;28;19909;-78
2023/01/27 08:48:43;;;;;;;;;;;4.90;99.90;;;;;;5092058;28;19915;-79
2023/01/27 08:51:11;;;;;;;;;;;4.90;99.90;;;;;;5091132;28;19920;-79
2023/01/27 08:53:36;;;;;;;;;;;4.90;99.90;;;;;;5092159;28;19908;-79
2023/01/27 08:56:04;;;;;;;;;;;4.90;99.90;;;;;;5091835;28;20065;-78
2023/01/27 08:58:30;;;;;;;;;;;4.90;99.90;;;;;;5092633;28;20321;-77
2023/01/27 09:00:57;;;;;;;;;;;5.00;99.90;;;;;;5091736;28;19908;-78
2023/01/27 09:03:24;;;;;;;;;;;5.00;99.90;;;;;;5092034;28;19983;-77
2023/01/27 09:05:50;;;;;;;;;;;5.00;99.90;;;;;;5091913;28;19923;-77
2023/01/27 09:08:15;;;;;;;;;;;5.00;99.90;;;;;;5091326;28;19920;-77
2023/01/27 09:10:41;;;;;;;;;;;5.00;99.90;;;;;;5089736;28;20331;-79
2023/01/27 09:13:07;;;;;;;;;;;5.10;99.90;;;;;;5090964;28;19908;-79
2023/01/27 09:15:36;;;;;;;;;;;5.10;99.90;;;;;;5091275;28;19915;-77
2023/01/27 09:18:01;;;;;;;;;;;5.20;99.90;;;;;;5091141;28;19914;-78
2023/01/27 09:20:27;;;;;;;;;;;5.20;99.90;;;;;;5089068;28;20292;-79
2023/01/27 09:22:56;;;;;;;;;;;5.20;99.90;;;;;;5088265;28;19912;-85
2023/01/27 09:25:21;;;;;;;;;;;5.20;99.90;;;;;;5090883;28;19915;-79
2023/01/27 09:27:47;;;;;;;;;;;5.20;99.90;;;;;;5090736;28;19908;-79
2023/01/27 09:30:14;;;;;;;;;;;5.30;99.90;;;;;;5089869;28;19944;-78
2023/01/27 09:32:40;;;;;;;;;;;5.30;99.90;;;;;;5090816;28;19908;-79
2023/01/27 09:35:06;;;;;;;;;;;5.40;99.90;;;;;;5090184;28;19908;-78
2023/01/27 09:37:32;;;;;;;;;;;5.40;99.90;;;;;;5090602;28;19949;-78
2023/01/27 09:40:00;;;;;;;;;;;5.40;99.90;;;;;;5090209;28;20005;-78
2023/01/27 09:42:39;;;;;;;;;;;5.50;99.90;;;;;;5090841;28;19915;-77
2023/01/27 09:45:11;;;;;;;;;;;5.50;99.90;;;;;;5090906;28;20036;-78
2023/01/27 09:47:36;;;;;;;;;;;5.60;99.90;;;;;;5091247;28;19999;-79
2023/01/27 09:50:11;;;;;;;;;;;5.60;99.90;;;;;;5090851;28;19947;-78
2023/01/27 09:52:52;;;;;;;;;;;5.70;99.90;;;;;;5091071;28;20313;-77
2023/01/27 09:55:29;;;;;;;;;;;5.80;99.90;;;;;;5090647;28;19914;-77
2023/01/27 09:58:13;;;;;;;;;;;5.90;99.90;;;;;;5091362;28;20260;-86
2023/01/27 10:00:42;;;;;;;;;;;5.90;99.90;;;;;;5091473;28;19915;-78
2023/01/27 10:03:19;;;;;;;;;;;6.10;99.90;;;;;;5092606;28;19943;-78
2023/01/27 10:06:10;;;;;;;;;;;6.10;99.90;;;;;;5095312;28;19909;-77
2023/01/27 10:08:42;;;;;;;;;;;6.10;99.90;;;;;;5094877;28;20353;-79
2023/01/27 10:11:07;;;;;;;;;;;6.20;99.90;;;;;;5094393;28;19916;-78
2023/01/27 10:13:51;;;;;;;;;;;6.20;99.90;;;;;;5095169;28;20387;-78
2023/01/27 10:16:28;;;;;;;;;;;6.20;99.90;;;;;;5094588;28;20028;-78
2023/01/27 10:19:06;;;;;;;;;;;6.20;99.90;;;;;;5093829;28;19915;-78
2023/01/27 10:21:48;;;;;;;;;;;6.20;99.90;;;;;;5095023;28;19969;-78
2023/01/27 10:24:13;;;;;;;;;;;6.20;99.90;;;;;;5093241;28;19915;-78
2023/01/27 10:26:48;;;;;;;;;;;6.30;99.90;;;;;;5094906;28;19912;-77
2023/01/27 10:29:22;;;;;;;;;;;6.30;99.90;;;;;;5094326;28;19952;-77
2023/01/27 10:32:08;;;;;;;;;;;6.30;99.90;;;;;;5094615;28;19920;-77
2023/01/27 10:34:41;;;;;;;;;;;6.20;99.90;;;;;;5094205;28;19908;-77
2023/01/27 10:37:23;;;;;;;;;;;6.20;99.90;;;;;;5094203;28;19914;-78
2023/01/27 10:40:08;;;;;;;;;;;6.20;99.90;;;;;;5094513;28;19958;-77
2023/01/27 10:42:51;;;;;;;;;;;6.20;99.90;;;;;;5094217;28;19955;-77
2023/01/27 10:45:17;;;;;;;;;;;6.20;99.90;;;;;;5093865;28;19992;-78
2023/01/27 10:47:45;;;;;;;;;;;6.10;99.90;;;;;;5093950;28;19916;-79
2023/01/27 10:50:31;;;;;;;;;;;6.10;99.90;;;;;;5093868;28;20019;-79
2023/01/27 10:52:56;;;;;;;;;;;6.10;99.90;;;;;;5086658;28;19915;-78
2023/01/27 10:55:25;;;;;;;;;;;6.10;99.90;;;;;;5093896;28;20310;-78
2023/01/27 10:58:12;;;;;;;;;;;6.00;99.90;;;;;;5075935;28;19958;-78
2023/01/27 11:00:42;;;;;;;;;;;6.00;99.90;;;;;;5094462;28;19916;-78
2023/01/27 11:03:08;;;;;;;;;;;6.00;99.90;;;;;;5093532;28;19908;-78
2023/01/27 11:05:39;;;;;;;;;;;6.00;99.90;;;;;;5093820;28;19969;-78
2023/01/27 11:08:25;;;;;;;;;;;6.10;99.90;;;;;;5092963;28;20298;-79
2023/01/27 11:13:37;;;;;;;;;;;6.00;99.90;;;;;;5093425;28;20430;-78
2023/01/27 11:16:04;;;;;;;;;;;6.10;99.90;;;;;;5093726;28;20308;-78
2023/01/27 11:18:31;;;;;;;;;;;6.00;99.90;;;;;;5093693;28;19908;-78
2023/01/27 11:21:09;;;;;;;;;;;6.00;99.90;;;;;;5093771;28;19976;-78
2023/01/27 11:23:47;;;;;;;;;;;6.00;99.90;;;;;;5093398;28;19933;-78
2023/01/27 11:26:32;;;;;;;;;;;6.00;99.90;;;;;;5092765;28;20011;-79
2023/01/27 11:29:09;;;;;;;;;;;6.00;99.90;;;;;;5092643;28;19943;-77
2023/01/27 11:31:58;;;;;;;;;;;6.00;99.90;;;;;;5092736;28;19922;-78
2023/01/27 11:34:26;;;;;;;;;;;6.00;99.90;;;;;;5072476;28;20012;-78
2023/01/27 11:36:52;;;;;;;;;;;6.00;99.90;;;;;;5092555;28;19909;-85
2023/01/27 11:39:18;;;;;;;;;;;6.10;99.90;;;;;;5092573;28;20268;-79
2023/01/27 11:41:46;;;;;;;;;;;6.10;99.90;;;;;;5092650;28;19908;-78
2023/01/27 11:44:17;;;;;;;;;;;6.20;99.90;;;;;;5092146;28;19999;-79
2023/01/27 11:46:44;;;;;;;;;;;6.20;99.90;;;;;;5092513;28;19938;-78
2023/01/27 11:49:11;;;;;;;;;;;6.20;99.90;;;;;;5091782;28;19958;-78
2023/01/27 11:51:39;;;;;;;;;;;6.20;99.90;;;;;;5092646;28;19974;-78
2023/01/27 11:54:20;;;;;;;;;;;6.30;99.90;;;;;;5092019;28;19992;-79
2023/01/27 11:56:47;;;;;;;;;;;6.20;99.90;;;;;;5092649;28;19950;-78
2023/01/27 11:59:35;;;;;;;;;;;6.30;99.90;;;;;;5091660;28;20376;-77
2023/01/27 12:02:02;;;;;;;;;;;6.30;99.90;;;;;;5086398;28;20006;-84
2023/01/27 12:04:33;;;;;;;;;;;6.30;99.90;;;;;;5091823;28;19915;-78
2023/01/27 12:07:03;;;;;;;;;;;6.30;99.90;;;;;;5091821;28;19927;-77
2023/01/27 12:09:29;;;;;;;;;;;6.30;99.90;;;;;;5092244;28;19908;-77
2023/01/27 12:12:24;;;;;;;;;;;6.30;99.90;;;;;;5091045;28;19942;-77
2023/01/27 12:15:03;;;;;;;;;;;6.40;99.90;;;;;;5077909;28;19912;-77
2023/01/27 12:17:58;;;;;;;;;;;6.30;99.90;;;;;;5092957;28;19972;-77
2023/01/27 12:20:35;;;;;;;;;;;6.30;99.90;;;;;;5082866;28;19947;-77
2023/01/27 12:23:24;;;;;;;;;;;6.30;99.90;;;;;;5091846;28;19912;-78
2023/01/27 12:25:57;;;;;;;;;;;6.30;99.90;;;;;;5085875;28;19908;-78
2023/01/27 12:28:23;;;;;;;;;;;6.40;99.90;;;;;;5092326;28;20003;-78
2023/01/27 12:30:50;;;;;;;;;;;6.40;99.90;;;;;;5092804;28;20031;-78
2023/01/27 12:33:28;;;;;;;;;;;6.40;99.90;;;;;;5092318;28;20253;-78
2023/01/27 12:35:57;;;;;;;;;;;6.50;99.90;;;;;;5092154;28;20006;-78
2023/01/27 12:38:23;;;;;;;;;;;6.60;99.90;;;;;;5091716;28;20006;-78
2023/01/27 12:41:00;;;;;;;;;;;6.60;99.90;;;;;;5092744;28;19912;-78
2023/01/27 12:43:26;;;;;;;;;;;6.60;99.90;;;;;;5092206;28;19940;-77
2023/01/27 12:46:10;;;;;;;;;;;6.60;99.90;;;;;;5092289;28;20059;-77
2023/01/27 12:48:43;;;;;;;;;;;6.60;99.90;;;;;;5092448;28;19915;-77
2023/01/27 12:51:16;;;;;;;;;;;6.60;99.90;;;;;;5091094;28;20304;-78
2023/01/27 12:53:44;;;;;;;;;;;6.60;99.90;;;;;;5092148;28;19956;-78
2023/01/27 12:56:15;;;;;;;;;;;6.60;99.90;;;;;;5091176;28;19959;-76
2023/01/27 12:58:52;;;;;;;;;;;6.60;99.90;;;;;;5091569;28;19958;-77
2023/01/27 13:01:32;;;;;;;;;;;6.60;99.90;;;;;;5091478;28;19916;-77
2023/01/27 13:04:10;;;;;;;;;;;6.60;99.90;;;;;;5091599;28;20277;-77
2023/01/27 13:06:42;;;;;;;;;;;6.60;99.90;;;;;;5091264;28;20230;-78
2023/01/27 13:09:32;;;;;;;;;;;6.60;99.90;;;;;;5091024;28;20019;-82
2023/01/27 13:12:00;;;;;;;;;;;6.60;99.90;;;;;;5071166;28;20156;-77
2023/01/27 13:14:31;;;;;;;;;;;6.70;99.90;;;;;;5090453;28;19964;-76
2023/01/27 13:16:57;;;;;;;;;;;6.60;99.90;;;;;;5090991;28;19908;-78
2023/01/27 13:19:43;;;;;;;;;;;6.70;99.90;;;;;;5089503;28;19908;-78
2023/01/27 13:22:15;;;;;;;;;;;6.70;99.90;;;;;;5090314;28;20003;-80
2023/01/27 13:24:41;;;;;;;;;;;6.70;99.90;;;;;;5091528;28;19916;-78
2023/01/27 13:27:11;;;;;;;;;;;6.70;99.90;;;;;;5091172;28;19918;-84
2023/01/27 13:29:38;;;;;;;;;;;6.70;99.90;;;;;;5091949;28;19915;-77
2023/01/27 13:32:18;;;;;;;;;;;6.70;99.90;;;;;;5092297;28;19990;-77
2023/01/27 13:34:46;;;;;;;;;;;6.70;99.90;;;;;;5091902;28;20341;-77
2023/01/27 13:37:12;;;;;;;;;;;6.80;99.90;;;;;;5090291;28;19914;-78
2023/01/27 13:39:56;;;;;;;;;;;6.80;99.90;;;;;;5092455;28;20010;-77
2023/01/27 13:42:32;;;;;;;;;;;6.80;99.90;;;;;;5091444;28;20379;-78
2023/01/27 13:44:57;;;;;;;;;;;6.80;99.90;;;;;;5092361;28;19915;-77
2023/01/27 13:47:29;;;;;;;;;;;6.80;99.90;;;;;;5091558;28;19908;-78
2023/01/27 13:50:13;;;;;;;;;;;6.90;99.90;;;;;;5092316;28;19995;-78
2023/01/27 13:52:38;;;;;;;;;;;6.90;99.90;;;;;;5091803;28;20007;-78
2023/01/27 13:55:04;;;;;;;;;;;6.90;99.90;;;;;;5090550;28;19943;-78
2023/01/27 13:57:35;;;;;;;;;;;7.00;99.90;;;;;;5091031;28;19904;-76
2023/01/27 14:00:18;;;;;;;;;;;7.00;99.90;;;;;;5092080;28;19916;-76
2023/01/27 14:03:02;;;;;;;;;;;7.00;99.90;;;;;;5092055;28;20307;-77
2023/01/27 14:05:37;;;;;;;;;;;7.00;99.90;;;;;;5091368;28;19915;-77
2023/01/27 14:08:21;;;;;;;;;;;7.00;99.90;;;;;;5092018;28;19920;-77
2023/01/27 14:10:52;;;;;;;;;;;7.00;99.90;;;;;;5091926;28;20292;-76
2023/01/27 14:13:17;;;;;;;;;;;7.00;99.90;;;;;;5091209;28;19974;-76
2023/01/27 14:16:04;;;;;;;;;;;7.00;99.90;;;;;;5091734;28;19908;-76
2023/01/27 14:18:34;;;;;;;;;;;7.10;99.90;;;;;;5091114;28;19919;-76
2023/01/27 14:21:02;;;;;;;;;;;7.10;99.90;;;;;;5091935;28;19908;-76
2023/01/27 14:23:39;;;;;;;;;;;7.10;99.90;;;;;;5090770;28;19912;-77
2023/01/27 14:26:20;;;;;;;;;;;7.10;99.90;;;;;;5091635;28;19919;-77
2023/01/27 14:28:53;;;;;;;;;;;7.10;99.90;;;;;;5091466;28;19934;-77
2023/01/27 14:31:22;;;;;;;;;;;7.10;99.90;;;;;;5091115;28;19916;-77
2023/01/27 14:34:02;;;;;;;;;;;7.10;99.90;;;;;;5091928;28;19943;-76
2023/01/27 14:37:00;;;;;;;;;;;7.10;99.90;;;;;;5092009;28;19922;-78
2023/01/27 14:39:37;;;;;;;;;;;7.20;99.90;;;;;;5068175;28;19908;-77
2023/01/27 14:42:15;;;;;;;;;;;7.20;99.90;;;;;;5091422;28;19915;-77
2023/01/27 14:44:51;;;;;;;;;;;7.20;99.90;;;;;;5090527;28;19912;-78
2023/01/27 14:47:22;;;;;;;;;;;7.20;99.90;;;;;;5089655;28;20357;-78
2023/01/27 14:50:16;;;;;;;;;;;7.20;99.90;;;;;;5094065;28;20323;-77
2023/01/27 14:52:46;;;;;;;;;;;7.20;99.90;;;;;;5094452;28;20361;-76
2023/01/27 14:55:26;;;;;;;;;;;7.20;99.90;;;;;;5094722;28;19916;-77
2023/01/27 14:58:04;;;;;;;;;;;7.20;99.90;;;;;;5094257;28;19919;-77
2023/01/27 15:00:30;;;;;;;;;;;7.30;99.90;;;;;;5093228;28;20262;-77
2023/01/27 15:03:15;;;;;;;;;;;7.30;99.90;;;;;;5093606;28;19912;-77
2023/01/27 15:05:40;;;;;;;;;;;7.20;99.90;;;;;;5093747;28;19912;-77
2023/01/27 15:08:12;;;;;;;;;;;7.20;99.90;;;;;;5093653;28;20350;-77
2023/01/27 15:10:41;;;;;;;;;;;7.30;99.90;;;;;;5092475;28;19931;-77
2023/01/27 15:13:25;;;;;;;;;;;7.20;99.90;;;;;;5093803;28;19915;-77
2023/01/27 15:15:50;;;;;;;;;;;7.30;99.90;;;;;;5093604;28;19988;-77
2023/01/27 15:18:35;;;;;;;;;;;7.30;99.90;;;;;;5092738;28;20258;-84
2023/01/27 15:21:19;;;;;;;;;;;7.30;99.90;;;;;;5091847;28;20136;-77